createdAt,value
2022-08-26T00:01:56.518Z,22.60
2022-08-26T00:04:25.591Z,22.65
2022-08-26T00:06:54.840Z,22.41
2022-08-26T00:09:24.771Z,22.26
2022-08-26T00:11:54.066Z,22.32
2022-08-26T00:14:27.073Z,22.36
2022-08-26T00:16:56.923Z,22.34
2022-08-26T00:19:24.891Z,22.36
2022-08-26T00:21:52.085Z,22.27
2022-08-26T00:24:21.820Z,22.28
2022-08-26T00:26:50.232Z,22.28
2022-08-26T00:29:19.309Z,22.37
2022-08-26T00:31:48.720Z,22.38
2022-08-26T00:34:19.310Z,21.99
2022-08-26T00:36:47.374Z,22.22
2022-08-26T00:39:16.515Z,22.23
2022-08-26T00:41:43.877Z,22.25
2022-08-26T00:44:11.269Z,22.39
2022-08-26T00:47:02.643Z,22.35
2022-08-26T00:49:40.855Z,22.39
2022-08-26T00:52:12.167Z,22.26
2022-08-26T00:54:46.994Z,22.31
2022-08-26T00:57:17.777Z,22.23
2022-08-26T00:59:48.364Z,22.22
2022-08-26T01:02:20.850Z,22.00
2022-08-26T01:04:56.498Z,22.08
2022-08-26T01:07:26.319Z,22.18
2022-08-26T01:09:55.658Z,22.02
2022-08-26T01:12:25.155Z,22.07
2022-08-26T01:14:52.860Z,22.15
2022-08-26T01:17:20.201Z,22.13
2022-08-26T01:19:52.495Z,22.02
2022-08-26T01:22:22.208Z,22.07
2022-08-26T01:24:55.908Z,22.02
2022-08-26T01:27:23.520Z,21.95
2022-08-26T01:29:51.790Z,21.88
2022-08-26T01:32:23.333Z,21.86
2022-08-26T01:34:51.011Z,21.84
2022-08-26T01:37:22.056Z,21.90
2022-08-26T01:39:52.022Z,21.85
2022-08-26T01:42:22.405Z,21.93
2022-08-26T01:45:22.869Z,22.00
2022-08-26T01:47:57.026Z,21.79
2022-08-26T01:50:30.204Z,21.90
2022-08-26T01:53:00.618Z,21.89
2022-08-26T01:55:32.797Z,21.84
2022-08-26T01:58:05.527Z,21.83
2022-08-26T02:00:35.534Z,21.81
2022-08-26T02:03:17.996Z,21.76
2022-08-26T02:05:48.784Z,21.74
2022-08-26T02:08:24.910Z,21.70
2022-08-26T02:10:54.098Z,21.61
2022-08-26T02:13:23.320Z,21.67
2022-08-26T02:15:52.880Z,21.55
2022-08-26T02:18:20.253Z,21.66
2022-08-26T02:20:47.883Z,21.65
2022-08-26T02:23:18.859Z,21.62
2022-08-26T02:25:53.827Z,21.59
2022-08-26T02:28:20.940Z,21.53
2022-08-26T02:30:55.526Z,21.50
2022-08-26T02:33:22.859Z,21.55
2022-08-26T02:35:49.960Z,21.45
2022-08-26T02:38:17.947Z,21.48
2022-08-26T02:40:45.063Z,21.51
2022-08-26T02:43:12.713Z,21.67
2022-08-26T02:45:41.181Z,21.82
2022-08-26T02:48:12.426Z,21.90
2022-08-26T02:50:40.346Z,22.06
2022-08-26T02:53:08.206Z,22.12
2022-08-26T02:55:36.679Z,22.03
2022-08-26T02:58:03.918Z,22.01
2022-08-26T03:00:31.612Z,21.95
2022-08-26T03:02:59.780Z,21.99
2022-08-26T03:05:27.064Z,21.98
2022-08-26T03:07:54.130Z,21.72
2022-08-26T03:10:22.359Z,21.78
2022-08-26T03:12:49.507Z,21.58
2022-08-26T03:15:20.135Z,21.58
2022-08-26T03:17:48.394Z,21.67
2022-08-26T03:20:18.304Z,21.86
2022-08-26T03:22:47.643Z,21.99
2022-08-26T03:25:17.009Z,21.94
2022-08-26T03:27:45.222Z,21.81
2022-08-26T03:30:34.449Z,21.70
2022-08-26T03:33:02.606Z,21.62
2022-08-26T03:35:31.417Z,21.66
2022-08-26T03:37:58.847Z,21.75
2022-08-26T03:40:29.101Z,21.92
2022-08-26T03:42:57.015Z,22.30
2022-08-26T03:45:24.402Z,22.13
2022-08-26T03:47:52.335Z,22.19
2022-08-26T03:50:24.986Z,22.24
2022-08-26T03:52:55.187Z,22.22
2022-08-26T03:55:25.867Z,22.37
2022-08-26T03:57:54.984Z,22.39
2022-08-26T04:00:22.576Z,22.24
2022-08-26T04:02:53.358Z,22.08
2022-08-26T04:05:22.162Z,22.14
2022-08-26T04:07:52.883Z,22.14
2022-08-26T04:10:28.402Z,22.08
2022-08-26T04:12:58.940Z,22.11
2022-08-26T04:15:27.251Z,22.22
2022-08-26T04:17:55.845Z,22.13
2022-08-26T04:20:25.071Z,22.30
2022-08-26T04:22:53.105Z,22.34
2022-08-26T04:25:20.478Z,22.40
2022-08-26T04:27:48.523Z,22.46
2022-08-26T04:30:16.650Z,22.63
2022-08-26T04:32:46.735Z,22.62
2022-08-26T04:35:13.894Z,23.05
2022-08-26T04:37:43.114Z,23.16
2022-08-26T04:40:10.906Z,23.24
2022-08-26T04:42:38.581Z,23.29
2022-08-26T04:45:10.356Z,23.28
2022-08-26T04:47:38.800Z,23.25
2022-08-26T04:50:07.340Z,23.10
2022-08-26T04:52:36.863Z,23.27
2022-08-26T04:55:06.673Z,23.51
2022-08-26T04:57:36.299Z,23.71
2022-08-26T05:00:10.252Z,23.77
2022-08-26T05:02:39.385Z,23.89
2022-08-26T05:05:10.325Z,23.90
2022-08-26T05:07:37.636Z,23.93
2022-08-26T05:10:05.312Z,24.09
2022-08-26T05:12:37.253Z,24.17
2022-08-26T05:15:05.893Z,24.22
2022-08-26T05:17:33.480Z,24.18
2022-08-26T05:20:01.701Z,24.36
2022-08-26T05:22:31.197Z,24.48
2022-08-26T05:24:58.316Z,24.59
2022-08-26T05:27:25.484Z,24.71
2022-08-26T05:29:57.299Z,24.81
2022-08-26T05:32:24.471Z,24.79
2022-08-26T05:34:55.873Z,24.75
2022-08-26T05:37:23.387Z,24.92
2022-08-26T05:39:51.233Z,25.03
2022-08-26T05:42:20.021Z,25.11
2022-08-26T05:44:55.528Z,25.18
2022-08-26T05:47:23.491Z,25.28
2022-08-26T05:49:51.583Z,25.35
2022-08-26T05:52:20.292Z,25.49
2022-08-26T05:54:47.844Z,25.60
2022-08-26T05:57:16.156Z,25.60
2022-08-26T05:59:45.896Z,25.77
2022-08-26T06:02:13.161Z,25.80
2022-08-26T06:04:40.832Z,25.75
2022-08-26T06:07:11.525Z,25.93
2022-08-26T06:09:40.340Z,26.01
2022-08-26T06:12:07.693Z,26.11
2022-08-26T06:14:36.110Z,26.28
2022-08-26T06:17:04.338Z,26.38
2022-08-26T06:19:32.648Z,26.41
2022-08-26T06:22:22.428Z,26.45
2022-08-26T06:25:09.916Z,26.48
2022-08-26T06:27:38.254Z,26.61
2022-08-26T06:30:06.560Z,26.71
2022-08-26T06:32:34.232Z,26.82
2022-08-26T06:35:01.590Z,26.97
2022-08-26T06:37:30.846Z,27.09
2022-08-26T06:39:58.082Z,27.13
2022-08-26T06:42:25.345Z,27.16
2022-08-26T06:44:53.890Z,27.28
2022-08-26T06:47:21.091Z,27.24
2022-08-26T06:49:48.689Z,27.32
2022-08-26T06:52:22.937Z,27.44
2022-08-26T06:54:51.827Z,27.56
2022-08-26T06:57:20.425Z,27.76
2022-08-26T06:59:48.887Z,27.80
2022-08-26T07:02:18.823Z,27.93
2022-08-26T07:04:47.725Z,27.95
2022-08-26T07:07:15.989Z,27.96
2022-08-26T07:09:43.162Z,28.06
2022-08-26T07:12:10.444Z,28.13
2022-08-26T07:14:38.469Z,28.20
2022-08-26T07:17:09.206Z,28.31
2022-08-26T07:19:39.395Z,28.38
2022-08-26T07:22:07.039Z,28.58
2022-08-26T07:24:38.307Z,28.59
2022-08-26T07:27:08.597Z,28.71
2022-08-26T07:29:37.913Z,28.70
2022-08-26T07:32:10.232Z,28.65
2022-08-26T07:34:38.893Z,28.97
2022-08-26T07:37:08.847Z,28.78
2022-08-26T07:39:36.123Z,28.78
2022-08-26T07:42:08.146Z,28.82
2022-08-26T07:44:37.531Z,28.89
2022-08-26T07:47:24.041Z,29.10
2022-08-26T07:49:54.934Z,29.19
2022-08-26T07:52:26.637Z,29.14
2022-08-26T07:54:56.614Z,29.05
2022-08-26T07:57:24.786Z,29.10
2022-08-26T07:59:54.081Z,29.33
2022-08-26T08:02:23.824Z,29.48
2022-08-26T08:04:51.886Z,29.45
2022-08-26T08:07:19.303Z,29.43
2022-08-26T08:09:49.692Z,29.40
2022-08-26T08:12:18.246Z,29.54
2022-08-26T08:14:46.938Z,29.65
2022-08-26T08:17:16.157Z,29.67
2022-08-26T08:19:43.452Z,29.63
2022-08-26T08:22:17.834Z,29.69
2022-08-26T08:24:49.956Z,29.67
2022-08-26T08:27:23.741Z,29.84
2022-08-26T08:29:54.991Z,29.95
2022-08-26T08:32:23.386Z,30.11
2022-08-26T08:34:50.498Z,30.02
2022-08-26T08:37:17.626Z,30.16
2022-08-26T08:39:44.916Z,30.19
2022-08-26T08:42:30.468Z,30.34
2022-08-26T08:45:01.708Z,30.33
2022-08-26T08:47:42.978Z,30.34
2022-08-26T08:50:26.126Z,30.39
2022-08-26T08:53:20.468Z,30.38
2022-08-26T08:56:17.908Z,30.37
2022-08-26T08:58:51.615Z,30.39
2022-08-26T09:01:30.627Z,30.43
2022-08-26T09:04:35.339Z,30.47
2022-08-26T09:07:04.667Z,30.51
2022-08-26T09:09:41.113Z,30.42
2022-08-26T09:12:15.592Z,30.69
2022-08-26T09:14:45.828Z,30.55
2022-08-26T09:17:21.332Z,30.52
2022-08-26T09:19:59.447Z,30.56
2022-08-26T09:22:33.092Z,30.73
2022-08-26T09:25:01.676Z,30.81
2022-08-26T09:27:50.326Z,30.61
2022-08-26T09:30:30.529Z,30.67
2022-08-26T09:33:11.084Z,30.83
2022-08-26T09:35:41.171Z,30.88
2022-08-26T09:38:34.685Z,30.94
2022-08-26T09:41:06.849Z,31.04
2022-08-26T09:43:35.994Z,30.96
2022-08-26T09:46:22.667Z,30.85
2022-08-26T09:48:51.743Z,30.98
2022-08-26T09:51:23.186Z,31.04
2022-08-26T09:53:51.447Z,30.87
2022-08-26T09:56:25.980Z,30.71
2022-08-26T09:58:57.749Z,30.90
2022-08-26T10:01:31.438Z,30.87
2022-08-26T10:04:26.681Z,30.97
2022-08-26T10:07:04.943Z,31.08
2022-08-26T10:09:39.200Z,30.98
2022-08-26T10:12:21.289Z,31.03
2022-08-26T10:14:52.064Z,30.78
2022-08-26T10:17:38.057Z,31.00
2022-08-26T10:20:22.496Z,31.11
2022-08-26T10:23:05.868Z,31.16
2022-08-26T10:26:08.851Z,31.33
2022-08-26T10:28:50.063Z,31.38
2022-08-26T10:31:28.270Z,31.19
2022-08-26T10:33:58.843Z,31.28
2022-08-26T10:37:14.680Z,31.45
2022-08-26T10:39:59.376Z,31.31
2022-08-26T10:42:42.011Z,31.14
2022-08-26T10:45:14.832Z,31.11
2022-08-26T10:48:07.928Z,30.99
2022-08-26T10:50:44.121Z,31.11
2022-08-26T10:53:27.431Z,31.06
2022-08-26T10:56:19.226Z,31.45
2022-08-26T10:59:16.675Z,31.48
2022-08-26T11:01:57.767Z,31.46
2022-08-26T11:04:48.446Z,31.63
2022-08-26T11:07:43.317Z,31.56
2022-08-26T11:10:21.365Z,31.53
2022-08-26T11:12:56.067Z,31.71
2022-08-26T11:15:26.831Z,31.28
2022-08-26T11:17:57.179Z,31.23
2022-08-26T11:20:44.245Z,31.44
2022-08-26T11:23:16.912Z,31.40
2022-08-26T11:25:56.172Z,31.45
2022-08-26T11:28:36.673Z,31.48
2022-08-26T11:31:08.768Z,31.11
2022-08-26T11:33:48.480Z,31.08
2022-08-26T11:36:39.758Z,31.05
2022-08-26T11:39:25.532Z,31.41
2022-08-26T11:41:55.583Z,31.34
2022-08-26T11:44:27.931Z,31.11
2022-08-26T11:47:00.966Z,31.16
2022-08-26T11:49:29.800Z,30.99
2022-08-26T11:52:20.745Z,31.13
2022-08-26T11:55:02.864Z,31.30
2022-08-26T11:57:33.108Z,31.20
2022-08-26T12:00:01.439Z,30.87
2022-08-26T12:02:29.255Z,30.70
2022-08-26T12:04:57.242Z,30.77
2022-08-26T12:07:29.396Z,30.88
2022-08-26T12:10:00.655Z,30.95
2022-08-26T12:12:38.910Z,30.96
2022-08-26T12:15:16.794Z,30.97
2022-08-26T12:17:50.482Z,31.00
2022-08-26T12:20:46.061Z,31.06
2022-08-26T12:23:41.835Z,30.84
2022-08-26T12:26:27.610Z,31.01
2022-08-26T12:29:00.123Z,31.09
2022-08-26T12:31:33.903Z,30.87
2022-08-26T12:34:04.164Z,30.66
2022-08-26T12:36:36.968Z,30.83
2022-08-26T12:39:10.967Z,30.87
2022-08-26T12:41:52.071Z,30.89
2022-08-26T12:44:53.270Z,30.87
2022-08-26T12:47:41.823Z,30.73
2022-08-26T12:50:18.896Z,30.86
2022-08-26T12:53:01.377Z,30.73
2022-08-26T12:55:45.311Z,30.70
2022-08-26T12:58:15.494Z,30.84
2022-08-26T13:00:47.495Z,30.91
2022-08-26T13:03:39.158Z,30.93
2022-08-26T13:06:24.132Z,30.95
2022-08-26T13:08:58.829Z,31.02
2022-08-26T13:11:25.834Z,30.99
2022-08-26T13:14:00.375Z,30.81
2022-08-26T13:16:29.513Z,30.78
2022-08-26T13:19:02.796Z,30.73
2022-08-26T13:21:40.995Z,30.83
2022-08-26T13:24:13.649Z,30.79
2022-08-26T13:26:42.871Z,30.94
2022-08-26T13:29:11.112Z,30.95
2022-08-26T13:31:41.105Z,30.93
2022-08-26T13:34:11.219Z,30.93
2022-08-26T13:36:38.503Z,30.83
2022-08-26T13:39:08.246Z,30.95
2022-08-26T13:41:36.353Z,30.95
2022-08-26T13:44:04.707Z,30.92
2022-08-26T13:46:32.213Z,30.84
2022-08-26T13:48:59.628Z,30.89
2022-08-26T13:51:28.119Z,30.93
2022-08-26T13:53:55.378Z,30.91
2022-08-26T13:56:23.045Z,30.95
2022-08-26T13:58:50.357Z,30.85
2022-08-26T14:01:17.574Z,30.78
2022-08-26T14:03:44.980Z,30.72
2022-08-26T14:06:12.646Z,30.85
2022-08-26T14:08:42.428Z,30.96
2022-08-26T14:11:09.970Z,30.83
2022-08-26T14:13:37.653Z,30.88
2022-08-26T14:16:09.751Z,30.82
2022-08-26T14:18:42.165Z,30.89
2022-08-26T14:21:13.592Z,30.70
2022-08-26T14:23:41.506Z,30.76
2022-08-26T14:26:23.104Z,30.81
2022-08-26T14:28:55.805Z,30.73
2022-08-26T14:31:23.903Z,30.68
2022-08-26T14:33:51.219Z,30.67
2022-08-26T14:36:33.715Z,30.56
2022-08-26T14:39:10.936Z,30.41
2022-08-26T14:41:54.084Z,30.41
2022-08-26T14:44:29.515Z,30.35
2022-08-26T14:46:57.442Z,30.25
2022-08-26T14:49:27.259Z,30.21
2022-08-26T14:51:54.555Z,30.29
2022-08-26T14:54:21.710Z,30.25
2022-08-26T14:56:59.312Z,30.13
2022-08-26T14:59:32.368Z,30.00
2022-08-26T15:02:00.613Z,29.92
2022-08-26T15:04:28.706Z,29.99
2022-08-26T15:06:58.784Z,29.88
2022-08-26T15:09:28.057Z,29.92
2022-08-26T15:11:55.563Z,29.97
2022-08-26T15:14:23.577Z,29.94
2022-08-26T15:16:54.016Z,29.80
2022-08-26T15:19:23.399Z,29.62
2022-08-26T15:21:51.408Z,29.70
2022-08-26T15:24:21.642Z,29.72
2022-08-26T15:26:49.808Z,29.50
2022-08-26T15:29:17.237Z,29.51
2022-08-26T15:31:44.451Z,29.31
2022-08-26T15:34:16.391Z,29.25
2022-08-26T15:36:46.395Z,29.39
2022-08-26T15:39:15.245Z,29.27
2022-08-26T15:41:42.489Z,29.26
2022-08-26T15:44:10.228Z,29.14
2022-08-26T15:46:37.699Z,29.09
2022-08-26T15:49:07.215Z,29.20
2022-08-26T15:51:45.416Z,29.22
2022-08-26T15:54:14.083Z,29.05
2022-08-26T15:56:41.132Z,28.74
2022-08-26T15:59:11.425Z,28.79
2022-08-26T16:01:39.030Z,28.74
2022-08-26T16:04:07.404Z,28.76
2022-08-26T16:06:37.435Z,28.74
2022-08-26T16:09:05.056Z,28.69
2022-08-26T16:11:32.939Z,28.61
2022-08-26T16:14:00.117Z,28.54
2022-08-26T16:16:27.211Z,28.48
2022-08-26T16:18:55.127Z,28.32
2022-08-26T16:21:24.878Z,28.24
2022-08-26T16:23:52.252Z,28.26
2022-08-26T16:26:23.994Z,28.17
2022-08-26T16:28:51.177Z,28.11
2022-08-26T16:31:18.684Z,28.03
2022-08-26T16:33:46.319Z,27.91
2022-08-26T16:36:15.381Z,27.85
2022-08-26T16:38:47.710Z,27.79
2022-08-26T16:41:14.756Z,27.74
2022-08-26T16:43:42.093Z,27.67
2022-08-26T16:46:11.380Z,27.60
2022-08-26T16:48:38.536Z,27.57
2022-08-26T16:51:06.282Z,27.49
2022-08-26T16:53:33.664Z,27.43
2022-08-26T16:56:00.787Z,27.36
2022-08-26T16:58:27.916Z,27.25
2022-08-26T17:00:56.898Z,27.22
2022-08-26T17:03:23.978Z,27.19
2022-08-26T17:05:51.012Z,27.15
2022-08-26T17:08:24.221Z,27.11
2022-08-26T17:10:55.550Z,27.07
2022-08-26T17:13:34.843Z,27.00
2022-08-26T17:16:09.859Z,26.94
2022-08-26T17:18:37.403Z,26.90
2022-08-26T17:21:08.471Z,26.88
2022-08-26T17:23:36.747Z,26.82
2022-08-26T17:26:04.053Z,26.79
2022-08-26T17:28:32.097Z,26.77
2022-08-26T17:31:01.307Z,26.71
2022-08-26T17:33:31.514Z,26.70
2022-08-26T17:35:59.685Z,26.67
2022-08-26T17:38:29.223Z,26.61
2022-08-26T17:40:57.698Z,26.51
2022-08-26T17:43:26.854Z,26.37
2022-08-26T17:45:59.060Z,26.43
2022-08-26T17:48:35.923Z,26.34
2022-08-26T17:51:16.991Z,26.27
2022-08-26T17:53:44.244Z,26.20
2022-08-26T17:56:14.090Z,26.17
2022-08-26T17:58:50.944Z,26.20
2022-08-26T18:01:19.964Z,26.17
2022-08-26T18:03:47.624Z,26.09
2022-08-26T18:06:14.916Z,25.91
2022-08-26T18:08:42.549Z,25.90
2022-08-26T18:11:16.386Z,25.82
2022-08-26T18:13:47.333Z,25.83
2022-08-26T18:16:16.485Z,25.74
2022-08-26T18:18:44.287Z,25.85
2022-08-26T18:21:15.624Z,25.86
2022-08-26T18:23:44.300Z,25.84
2022-08-26T18:26:20.870Z,25.79
2022-08-26T18:28:48.111Z,25.73
2022-08-26T18:31:16.363Z,25.71
2022-08-26T18:33:44.039Z,25.55
2022-08-26T18:36:21.766Z,25.57
2022-08-26T18:38:50.748Z,25.51
2022-08-26T18:41:20.962Z,25.51
2022-08-26T18:43:48.905Z,25.53
2022-08-26T18:46:16.777Z,25.47
2022-08-26T18:48:44.106Z,25.47
2022-08-26T18:51:21.951Z,25.45
2022-08-26T18:53:49.660Z,25.43
2022-08-26T18:56:18.693Z,25.35
2022-08-26T18:58:46.488Z,25.31
2022-08-26T19:01:14.924Z,25.17
2022-08-26T19:03:42.657Z,25.16
2022-08-26T19:06:15.811Z,25.16
2022-08-26T19:08:44.624Z,25.15
2022-08-26T19:11:14.239Z,25.12
2022-08-26T19:13:45.008Z,25.07
2022-08-26T19:16:25.271Z,25.11
2022-08-26T19:18:53.676Z,25.08
2022-08-26T19:21:22.712Z,25.10
2022-08-26T19:23:50.500Z,25.10
2022-08-26T19:26:19.462Z,25.08
2022-08-26T19:28:48.272Z,25.05
2022-08-26T19:31:15.785Z,25.01
2022-08-26T19:33:45.205Z,24.95
2022-08-26T19:36:17.979Z,24.89
2022-08-26T19:38:46.133Z,24.72
2022-08-26T19:41:15.383Z,24.57
2022-08-26T19:43:42.925Z,24.47
2022-08-26T19:46:12.909Z,24.51
2022-08-26T19:48:44.063Z,24.41
2022-08-26T19:51:16.379Z,24.34
2022-08-26T19:53:44.679Z,24.39
2022-08-26T19:56:12.924Z,24.36
2022-08-26T19:58:40.936Z,24.30
2022-08-26T20:01:09.113Z,24.25
2022-08-26T20:06:23.424Z,24.22
2022-08-26T20:08:50.973Z,24.19
2022-08-26T20:11:21.043Z,23.93
2022-08-26T20:13:48.356Z,23.90
2022-08-26T20:16:16.867Z,23.96
2022-08-26T20:19:03.456Z,24.00
2022-08-26T20:21:35.606Z,24.03
2022-08-26T20:24:07.268Z,23.90
2022-08-26T20:26:36.868Z,23.96
2022-08-26T20:29:05.914Z,23.89
2022-08-26T20:31:35.191Z,23.94
2022-08-26T20:34:03.379Z,23.89
2022-08-26T20:36:30.587Z,23.86
2022-08-26T20:38:58.436Z,23.88
2022-08-26T20:41:26.108Z,23.83
2022-08-26T20:43:54.257Z,23.70
2022-08-26T20:46:24.691Z,23.81
2022-08-26T20:48:53.657Z,23.80
2022-08-26T20:51:22.965Z,23.86
2022-08-26T20:53:51.191Z,23.90
2022-08-26T20:56:25.092Z,23.90
2022-08-26T20:58:54.435Z,23.91
2022-08-26T21:01:25.037Z,23.87
2022-08-26T21:03:53.923Z,23.82
2022-08-26T21:06:21.476Z,23.73
2022-08-26T21:08:50.319Z,23.63
2022-08-26T21:11:18.300Z,23.57
2022-08-26T21:14:04.441Z,23.51
2022-08-26T21:16:37.797Z,23.49
2022-08-26T21:19:06.807Z,23.48
2022-08-26T21:21:34.382Z,23.36
2022-08-26T21:24:01.604Z,23.36
2022-08-26T21:26:29.146Z,23.32
2022-08-26T21:28:56.526Z,23.27
2022-08-26T21:31:25.052Z,23.31
2022-08-26T21:33:52.651Z,23.42
2022-08-26T21:36:20.259Z,23.25
2022-08-26T21:38:47.652Z,23.39
2022-08-26T21:41:22.219Z,23.45
2022-08-26T21:43:50.882Z,23.35
2022-08-26T21:46:22.071Z,23.33
2022-08-26T21:48:56.175Z,23.43
2022-08-26T21:51:25.408Z,23.31
2022-08-26T21:53:53.095Z,23.42
2022-08-26T21:56:22.263Z,23.39
2022-08-26T21:58:50.047Z,23.38
2022-08-26T22:01:21.897Z,23.49
2022-08-26T22:03:50.049Z,23.46
2022-08-26T22:06:19.734Z,23.34
2022-08-26T22:08:46.957Z,23.12
2022-08-26T22:11:15.633Z,23.22
2022-08-26T22:13:43.812Z,23.11
2022-08-26T22:16:11.579Z,23.10
2022-08-26T22:18:39.921Z,23.03
2022-08-26T22:21:09.856Z,23.07
2022-08-26T22:23:38.501Z,23.02
2022-08-26T22:26:07.727Z,22.97
2022-08-26T22:28:35.590Z,22.88
2022-08-26T22:31:02.959Z,22.84
2022-08-26T22:33:30.143Z,22.82
2022-08-26T22:35:57.300Z,22.77
2022-08-26T22:38:24.952Z,22.75
2022-08-26T22:40:57.918Z,22.70
2022-08-26T22:43:26.484Z,22.61
2022-08-26T22:45:54.526Z,22.60
2022-08-26T22:48:24.565Z,22.53
2022-08-26T22:51:00.004Z,22.62
2022-08-26T22:53:27.854Z,22.61
2022-08-26T22:55:54.993Z,22.44
2022-08-26T22:58:30.198Z,22.58
2022-08-26T23:00:59.520Z,22.54
2022-08-26T23:03:27.706Z,22.48
2022-08-26T23:05:55.997Z,22.25
2022-08-26T23:08:24.782Z,22.38
2022-08-26T23:10:52.609Z,22.28
2022-08-26T23:13:20.379Z,22.46
2022-08-26T23:15:47.683Z,22.49
2022-08-26T23:18:15.293Z,22.48
2022-08-26T23:20:42.856Z,22.36
2022-08-26T23:23:09.993Z,22.41
2022-08-26T23:25:37.123Z,22.42
2022-08-26T23:28:04.620Z,22.21
2022-08-26T23:30:34.488Z,21.79
2022-08-26T23:33:01.882Z,21.89
2022-08-26T23:35:29.239Z,21.99
2022-08-26T23:37:57.801Z,21.95
2022-08-26T23:40:30.202Z,22.06
2022-08-26T23:42:58.654Z,22.11
2022-08-26T23:45:27.233Z,22.10
2022-08-26T23:47:54.971Z,22.06
2022-08-26T23:50:44.910Z,22.02
2022-08-26T23:53:19.412Z,21.89
2022-08-26T23:55:49.130Z,21.91
2022-08-26T23:58:18.172Z,21.90
